Time;durP1;ratioP1;P1;durP2;ratioP2;P2;SDS_P1;SDS_P2;PMS_P1;PMS_P2;Temp;Humidity;BMP_temperature;BMP_pressure;BME280_temperature;BME280_humidity;BME280_pressure;Samples;Min_cycle;Max_cycle;Signal;HPM_P1;HPM_P2
2022/03/22 00:00:06;;;;;;;25.30;14.07;;;3.60;99.90;;;;;;4977836;28;20512;-53
2022/03/22 00:02:33;;;;;;;23.33;15.07;;;3.60;99.90;;;;;;4977747;28;20556;-53
2022/03/22 00:04:59;;;;;;;19.63;14.47;;;3.60;99.90;;;;;;4976451;28;20489;-52
2022/03/22 00:07:27;;;;;;;20.70;14.17;;;3.50;99.90;;;;;;4978351;28;22025;-53
2022/03/22 00:09:54;;;;;;;18.37;14.20;;;3.50;99.90;;;;;;4978665;28;20571;-54
2022/03/22 00:12:21;;;;;;;18.13;13.47;;;3.40;99.90;;;;;;4983780;28;20555;-53
2022/03/22 00:14:48;;;;;;;21.30;14.23;;;3.30;99.90;;;;;;4978186;28;20555;-51
2022/03/22 00:17:15;;;;;;;20.73;14.40;;;3.40;99.90;;;;;;4977580;28;20508;-51
2022/03/22 00:19:41;;;;;;;20.53;14.50;;;3.40;99.90;;;;;;4979229;28;20581;-53
2022/03/22 00:22:11;;;;;;;17.00;13.10;;;3.40;99.90;;;;;;4976336;28;20548;-52
2022/03/22 00:24:38;;;;;;;17.40;13.17;;;3.30;99.90;;;;;;4973721;28;20465;-54
2022/03/22 00:27:04;;;;;;;17.80;14.40;;;3.20;99.90;;;;;;4977916;28;20549;-52
2022/03/22 00:29:32;;;;;;;22.80;13.60;;;3.30;99.90;;;;;;4977781;28;20540;-52
2022/03/22 00:31:59;;;;;;;17.43;13.80;;;3.30;99.90;;;;;;4976807;28;21150;-54
2022/03/22 00:34:25;;;;;;;26.07;14.40;;;3.30;99.90;;;;;;4978787;28;20557;-51
2022/03/22 00:36:54;;;;;;;17.70;14.43;;;3.30;99.90;;;;;;4977463;28;20489;-54
2022/03/22 00:39:20;;;;;;;19.63;14.93;;;3.40;99.90;;;;;;4978653;28;20464;-52
2022/03/22 00:41:47;;;;;;;19.10;14.30;;;3.30;99.90;;;;;;4979020;28;20552;-54
2022/03/22 00:44:14;;;;;;;20.93;15.43;;;3.30;99.90;;;;;;4975202;28;20544;-54
2022/03/22 00:46:41;;;;;;;18.50;14.70;;;3.30;99.90;;;;;;4981447;28;20571;-54
2022/03/22 00:49:08;;;;;;;21.77;15.57;;;3.20;99.90;;;;;;4978330;28;20495;-52
2022/03/22 00:51:35;;;;;;;21.43;14.43;;;3.20;99.90;;;;;;4980767;28;20567;-52
2022/03/22 00:54:03;;;;;;;16.17;12.70;;;3.30;99.90;;;;;;4975912;28;20475;-54
2022/03/22 00:56:29;;;;;;;19.60;14.67;;;3.30;99.90;;;;;;4982597;28;20461;-53
2022/03/22 01:01:36;;;;;;;18.70;14.90;;;3.20;99.90;;;;;;4975059;28;20598;-52
2022/03/22 01:04:05;;;;;;;18.60;13.80;;;3.20;99.90;;;;;;4977671;28;20515;-53
2022/03/22 01:06:32;;;;;;;17.47;13.50;;;3.10;99.90;;;;;;4982540;28;20486;-52
2022/03/22 01:08:58;;;;;;;19.73;14.37;;;3.10;99.90;;;;;;4980935;28;20580;-54
2022/03/22 01:11:25;;;;;;;22.90;13.20;;;3.10;99.90;;;;;;4977252;28;20562;-54
2022/03/22 01:13:51;;;;;;;18.37;13.63;;;3.10;99.90;;;;;;4979272;28;21029;-53
2022/03/22 01:16:18;;;;;;;17.67;14.67;;;3.20;99.90;;;;;;4982217;28;20551;-54
2022/03/22 01:18:44;;;;;;;19.50;14.47;;;3.30;99.90;;;;;;4977889;28;20717;-53
2022/03/22 01:21:12;;;;;;;19.30;14.10;;;3.30;99.90;;;;;;4980931;28;20547;-54
2022/03/22 01:23:39;;;;;;;26.83;14.40;;;3.30;99.90;;;;;;4979918;28;20946;-53
2022/03/22 01:26:06;;;;;;;24.00;14.33;;;3.30;99.90;;;;;;4977906;28;21120;-52
2022/03/22 01:28:34;;;;;;;18.63;14.13;;;3.50;99.90;;;;;;4979626;28;20485;-52
2022/03/22 01:31:01;;;;;;;15.23;13.63;;;3.50;99.90;;;;;;4980112;28;20464;-53
2022/03/22 01:33:27;;;;;;;21.90;13.60;;;3.50;99.90;;;;;;4979042;28;20488;-53
2022/03/22 01:35:54;;;;;;;18.67;14.30;;;3.40;99.90;;;;;;4974115;28;20485;-51
2022/03/22 01:38:23;;;;;;;18.63;14.23;;;3.30;99.90;;;;;;4975932;28;20563;-54
2022/03/22 01:40:49;;;;;;;21.50;14.70;;;3.20;99.90;;;;;;4976223;28;20465;-53
2022/03/22 01:43:16;;;;;;;21.93;15.37;;;3.10;99.90;;;;;;4977891;28;20514;-54
2022/03/22 01:45:43;;;;;;;21.20;14.53;;;3.00;99.90;;;;;;4980585;28;20616;-53
2022/03/22 01:48:09;;;;;;;25.60;14.27;;;2.90;99.90;;;;;;4979266;28;20560;-51
2022/03/22 01:50:36;;;;;;;18.67;14.17;;;2.80;99.90;;;;;;4978904;28;20460;-53
2022/03/22 01:53:03;;;;;;;17.53;14.00;;;2.70;99.90;;;;;;4976011;28;20524;-52
2022/03/22 01:55:31;;;;;;;19.07;13.63;;;2.50;99.90;;;;;;4976817;28;20495;-54
2022/03/22 01:57:58;;;;;;;17.17;13.23;;;2.40;99.90;;;;;;4979292;28;20562;-51
2022/03/22 02:00:25;;;;;;;18.87;14.47;;;2.30;99.90;;;;;;4973831;28;20548;-53
2022/03/22 02:08:31;;;;;;;18.00;14.10;;;2.00;99.90;;;;;;4964493;28;20469;-53
2022/03/22 02:11:00;;;;;;;21.27;14.97;;;1.90;99.90;;;;;;4977165;28;20464;-54
2022/03/22 02:13:27;;;;;;;19.00;15.17;;;1.90;99.90;;;;;;4980738;28;20473;-53
2022/03/22 02:15:56;;;;;;;20.57;14.37;;;1.80;99.90;;;;;;4979853;28;20464;-51
2022/03/22 02:18:24;;;;;;;20.73;14.90;;;1.70;99.90;;;;;;4978022;28;20561;-53
2022/03/22 02:20:51;;;;;;;20.83;14.97;;;1.70;99.90;;;;;;4977686;28;20469;-54
2022/03/22 02:23:21;;;;;;;20.57;16.10;;;1.60;99.90;;;;;;4977510;28;20551;-52
2022/03/22 02:25:50;;;;;;;19.70;14.97;;;1.50;99.90;;;;;;4978038;28;20994;-52
2022/03/22 02:28:19;;;;;;;16.87;13.40;;;1.40;99.90;;;;;;4971592;28;20496;-53
2022/03/22 02:30:46;;;;;;;24.30;15.80;;;1.40;99.90;;;;;;4969584;28;20966;-53
2022/03/22 02:33:12;;;;;;;20.13;14.13;;;1.40;99.90;;;;;;4974978;28;20946;-53
2022/03/22 02:35:41;;;;;;;21.40;15.33;;;1.50;99.90;;;;;;4975514;28;20503;-54
2022/03/22 02:38:08;;;;;;;22.13;15.77;;;1.40;99.90;;;;;;4975259;28;20494;-53
2022/03/22 02:40:35;;;;;;;19.27;14.70;;;1.40;99.90;;;;;;4971085;28;20457;-52
2022/03/22 02:43:03;;;;;;;24.60;14.40;;;1.30;99.90;;;;;;4972426;28;20567;-52
2022/03/22 02:45:30;;;;;;;16.93;13.43;;;1.20;1.40;;;;;;4971681;28;20461;-53
2022/03/22 02:47:58;;;;;;;18.53;13.73;;;1.10;99.90;;;;;;4979676;28;20581;-52
2022/03/22 02:50:25;;;;;;;17.70;14.63;;;1.10;99.90;;;;;;4971541;28;21716;-53
2022/03/22 02:52:51;;;;;;;18.17;14.17;;;1.00;99.90;;;;;;4970542;28;20581;-53
2022/03/22 02:55:20;;;;;;;17.40;12.77;;;1.00;99.90;;;;;;4978396;28;20468;-51
2022/03/22 02:57:47;;;;;;;20.90;15.27;;;1.00;99.90;;;;;;4976941;28;20483;-54
2022/03/22 03:00:16;;;;;;;21.17;13.27;;;0.90;99.90;;;;;;4971491;28;20485;-54
2022/03/22 03:02:44;;;;;;;23.50;14.40;;;0.90;99.90;;;;;;4972918;28;20473;-54
2022/03/22 03:05:11;;;;;;;18.73;14.73;;;0.80;99.90;;;;;;4975156;28;20499;-54
2022/03/22 03:07:39;;;;;;;16.70;13.20;;;0.80;99.90;;;;;;4974871;28;20588;-52
2022/03/22 03:10:07;;;;;;;20.57;14.03;;;0.80;99.90;;;;;;4979443;28;20552;-53
2022/03/22 03:12:34;;;;;;;21.03;13.50;;;0.70;99.90;;;;;;4976106;28;20496;-54
2022/03/22 03:15:01;;;;;;;18.73;14.40;;;0.70;99.90;;;;;;4977299;28;20520;-53
2022/03/22 03:17:29;;;;;;;17.80;14.87;;;0.70;99.90;;;;;;4973511;28;21059;-52
2022/03/22 03:19:56;;;;;;;20.07;15.80;;;0.70;99.90;;;;;;4976370;28;20467;-52
2022/03/22 03:22:23;;;;;;;16.93;13.60;;;0.70;99.90;;;;;;4977134;28;20920;-52
2022/03/22 03:24:49;;;;;;;25.93;16.00;;;0.70;99.90;;;;;;4976744;28;20465;-54
2022/03/22 03:27:16;;;;;;;18.27;14.73;;;0.70;99.90;;;;;;4975057;28;20578;-54
2022/03/22 03:29:43;;;;;;;20.03;14.63;;;0.70;99.90;;;;;;4975755;28;20556;-53
2022/03/22 03:32:10;;;;;;;18.20;14.47;;;0.80;99.90;;;;;;4973081;28;21116;-53
2022/03/22 03:34:38;;;;;;;18.07;15.00;;;0.90;99.90;;;;;;4972425;28;20616;-52
2022/03/22 03:37:06;;;;;;;21.93;15.50;;;0.90;99.90;;;;;;4974131;28;20543;-52
2022/03/22 03:39:32;;;;;;;18.07;15.27;;;1.10;99.90;;;;;;4974323;28;20571;-51
2022/03/22 03:42:00;;;;;;;21.70;15.57;;;1.30;99.90;;;;;;4979330;28;20582;-54
2022/03/22 03:47:15;;;;;;;23.43;15.83;;;1.50;99.90;;;;;;4975921;28;20600;-53
2022/03/22 03:49:44;;;;;;;23.30;14.10;;;1.50;99.90;;;;;;4977438;28;20472;-52
2022/03/22 03:52:13;;;;;;;20.53;15.83;;;1.40;99.90;;;;;;4975023;28;20550;-54
2022/03/22 03:54:40;;;;;;;24.10;15.07;;;1.40;99.90;;;;;;4973047;28;20469;-54
2022/03/22 03:57:07;;;;;;;21.97;14.93;;;1.30;99.90;;;;;;4973601;28;20559;-54
2022/03/22 03:59:35;;;;;;;21.80;15.50;;;1.30;99.90;;;;;;4975008;28;20916;-53
2022/03/22 04:02:02;;;;;;;21.57;15.50;;;1.40;99.90;;;;;;4972446;28;20564;-53
2022/03/22 04:04:29;;;;;;;22.20;14.57;;;1.70;99.90;;;;;;4974469;28;20548;-52
2022/03/22 04:06:57;;;;;;;21.53;17.03;;;1.70;99.90;;;;;;4977079;28;21051;-54
2022/03/22 04:09:23;;;;;;;26.27;16.37;;;1.80;99.90;;;;;;4976852;28;20500;-52
2022/03/22 04:11:50;;;;;;;19.73;15.53;;;1.80;99.90;;;;;;4982350;28;20543;-52
2022/03/22 04:14:17;;;;;;;18.77;14.53;;;1.90;99.90;;;;;;4983342;28;20560;-54
2022/03/22 04:16:43;;;;;;;28.17;16.63;;;1.90;99.90;;;;;;4979198;28;20452;-52
2022/03/22 04:19:10;;;;;;;20.90;15.40;;;1.90;99.90;;;;;;4983368;28;20469;-53
2022/03/22 04:21:38;;;;;;;22.30;15.07;;;1.90;99.90;;;;;;4979005;28;20546;-52
2022/03/22 04:24:07;;;;;;;21.87;14.73;;;2.00;99.90;;;;;;4983172;28;20515;-51
2022/03/22 04:26:35;;;;;;;19.70;13.53;;;2.00;99.90;;;;;;4978137;28;20534;-52
2022/03/22 04:34:31;;;;;;;21.60;15.30;;;1.90;99.90;;;;;;4976032;28;20511;-53
2022/03/22 04:36:57;;;;;;;21.10;14.40;;;1.90;99.90;;;;;;4978422;28;20492;-52
2022/03/22 04:39:26;;;;;;;21.23;15.40;;;1.90;99.90;;;;;;4979161;28;20492;-54
2022/03/22 04:41:53;;;;;;;18.00;14.60;;;2.00;99.90;;;;;;4979633;28;20496;-52
2022/03/22 04:44:20;;;;;;;20.57;15.80;;;2.00;99.90;;;;;;4977110;28;20468;-55
2022/03/22 04:46:47;;;;;;;20.63;15.03;;;2.00;99.90;;;;;;4976053;28;20485;-53
2022/03/22 04:49:14;;;;;;;23.10;15.90;;;2.00;99.90;;;;;;4980225;28;20504;-52
2022/03/22 04:57:11;;;;;;;20.60;15.03;;;2.10;99.90;;;;;;4983959;28;20509;-53
2022/03/22 04:59:37;;;;;;;20.43;15.67;;;2.00;99.90;;;;;;4973531;28;20974;-52
2022/03/22 05:02:04;;;;;;;18.30;14.90;;;2.00;99.90;;;;;;4978078;23;20517;-49
2022/03/22 05:04:31;;;;;;;21.73;15.37;;;2.00;99.90;;;;;;4957158;28;20563;-48
2022/03/22 05:06:57;;;;;;;19.47;15.20;;;1.90;99.90;;;;;;4952189;28;20576;-48
2022/03/22 05:09:24;;;;;;;18.70;15.27;;;1.80;99.90;;;;;;4950495;28;20923;-49
2022/03/22 05:11:52;;;;;;;23.33;15.50;;;1.80;99.90;;;;;;4963275;28;20934;-50
2022/03/22 05:14:18;;;;;;;20.63;15.80;;;1.70;99.90;;;;;;4975759;28;20507;-49
2022/03/22 05:16:45;;;;;;;28.00;16.87;;;1.60;99.90;;;;;;4975695;28;20589;-49
2022/03/22 05:19:13;;;;;;;26.47;19.60;;;1.60;99.90;;;;;;4972113;28;20465;-49
2022/03/22 05:21:40;;;;;;;32.60;21.42;;;1.50;99.90;;;;;;4974106;28;20519;-49
2022/03/22 05:24:07;;;;;;;27.30;20.60;;;1.40;99.90;;;;;;4972731;28;20236;-49
2022/03/22 05:26:34;;;;;;;28.13;20.03;;;1.40;99.90;;;;;;4974430;28;20564;-49
2022/03/22 05:29:03;;;;;;;29.90;23.13;;;1.30;99.90;;;;;;4970081;28;20518;-49
2022/03/22 05:31:30;;;;;;;30.47;22.87;;;1.30;99.90;;;;;;4976196;28;20497;-49
2022/03/22 05:33:56;;;;;;;28.07;22.80;;;1.30;99.90;;;;;;4971361;28;20469;-49
2022/03/22 05:36:24;;;;;;;21.80;15.30;;;1.30;99.90;;;;;;4974255;28;20457;-49
2022/03/22 05:38:52;;;;;;;20.40;16.40;;;1.40;99.90;;;;;;4972164;28;20478;-49
2022/03/22 05:41:18;;;;;;;21.67;16.77;;;1.60;99.90;;;;;;4973642;28;20893;-48
2022/03/22 05:43:45;;;;;;;22.40;15.60;;;1.80;99.90;;;;;;4970302;28;20489;-49
2022/03/22 05:46:15;;;;;;;20.80;17.23;;;1.90;99.90;;;;;;4970140;28;20518;-49
2022/03/22 05:48:42;;;;;;;23.40;17.57;;;1.90;99.90;;;;;;4974077;28;20942;-48
2022/03/22 05:51:08;;;;;;;27.67;17.53;;;2.00;99.90;;;;;;4969387;28;20501;-48
2022/03/22 05:53:35;;;;;;;33.53;18.63;;;2.00;99.90;;;;;;4973222;28;20493;-49
2022/03/22 05:56:02;;;;;;;29.17;18.40;;;2.20;99.90;;;;;;4970649;28;20519;-49
2022/03/22 05:58:28;;;;;;;24.57;17.67;;;2.50;99.90;;;;;;4971375;28;20460;-48
2022/03/22 06:00:55;;;;;;;32.43;16.70;;;2.90;99.90;;;;;;4969827;28;20556;-50
2022/03/22 06:03:23;;;;;;;31.73;18.10;;;3.20;99.90;;;;;;4972370;28;20501;-48
2022/03/22 06:05:50;;;;;;;30.63;18.30;;;3.50;99.90;;;;;;4971422;28;20484;-49
2022/03/22 06:08:18;;;;;;;32.60;16.80;;;3.70;99.90;;;;;;4967494;28;20596;-49
2022/03/22 06:10:44;;;;;;;27.23;15.70;;;3.80;99.90;;;;;;4974901;28;21025;-49
2022/03/22 06:13:11;;;;;;;20.10;15.83;;;3.70;99.90;;;;;;4972160;28;20560;-49
2022/03/22 06:15:38;;;;;;;33.83;15.77;;;3.90;99.90;;;;;;4974537;28;20496;-48
2022/03/22 06:18:09;;;;;;;23.63;16.43;;;3.80;99.90;;;;;;4969561;28;20549;-49
2022/03/22 06:20:38;;;;;;;34.60;15.60;;;3.90;99.90;;;;;;4970645;28;20958;-49
2022/03/22 06:23:06;;;;;;;20.13;15.00;;;4.00;99.90;;;;;;4969384;28;20469;-49
2022/03/22 06:25:34;;;;;;;36.37;17.07;;;4.20;99.90;;;;;;4968664;28;20508;-48
2022/03/22 06:28:00;;;;;;;22.37;15.60;;;4.40;99.90;;;;;;4964452;28;20528;-49
2022/03/22 06:30:28;;;;;;;19.00;14.93;;;4.50;99.90;;;;;;4969456;28;20494;-49
2022/03/22 06:32:57;;;;;;;24.97;16.20;;;4.60;99.90;;;;;;4969287;28;20544;-49
2022/03/22 06:35:26;;;;;;;23.13;15.23;;;4.60;99.90;;;;;;4969461;28;20465;-48
2022/03/22 06:37:54;;;;;;;21.40;17.20;;;4.50;99.90;;;;;;4971756;28;20549;-48
2022/03/22 06:40:24;;;;;;;25.27;16.57;;;4.50;99.90;;;;;;4965864;28;20489;-48
2022/03/22 06:42:51;;;;;;;24.60;16.73;;;4.60;99.90;;;;;;4968826;28;20488;-49
2022/03/22 06:45:17;;;;;;;27.00;15.53;;;4.60;99.90;;;;;;4967082;28;20469;-48
2022/03/22 06:47:46;;;;;;;28.67;18.40;;;4.80;99.90;;;;;;4973357;28;20583;-48
2022/03/22 06:50:16;;;;;;;46.10;17.33;;;4.90;99.90;;;;;;4971910;28;20551;-48
2022/03/22 06:52:43;;;;;;;26.27;15.80;;;5.00;99.90;;;;;;4974394;28;20512;-49
2022/03/22 06:55:13;;;;;;;24.63;15.93;;;5.10;99.90;;;;;;4965876;28;20549;-48
2022/03/22 06:57:40;;;;;;;26.93;16.57;;;5.10;99.90;;;;;;4970714;28;20466;-48
2022/03/22 07:00:09;;;;;;;19.57;15.60;;;5.10;99.90;;;;;;4970933;28;21263;-49
2022/03/22 07:02:36;;;;;;;27.50;17.00;;;5.10;99.90;;;;;;4966551;28;20497;-49
2022/03/22 07:05:03;;;;;;;34.90;17.57;;;5.40;99.90;;;;;;4967603;28;20492;-49
2022/03/22 07:07:30;;;;;;;33.00;15.67;;;5.60;99.90;;;;;;4968703;28;20560;-48
2022/03/22 07:09:56;;;;;;;18.80;15.00;;;5.60;99.90;;;;;;4969702;28;20500;-48
2022/03/22 07:12:24;;;;;;;23.67;17.63;;;5.60;99.90;;;;;;4969813;28;20930;-49
2022/03/22 07:14:51;;;;;;;22.27;16.20;;;5.60;99.90;;;;;;4970671;28;20909;-49
2022/03/22 07:17:17;;;;;;;23.60;17.13;;;5.80;99.90;;;;;;4970237;28;20500;-49
2022/03/22 07:19:44;;;;;;;24.20;17.50;;;6.00;99.90;;;;;;4966973;28;22164;-48
2022/03/22 07:22:11;;;;;;;30.77;18.80;;;6.40;99.90;;;;;;4973594;28;20497;-49
2022/03/22 07:24:37;;;;;;;24.40;16.63;;;7.10;99.90;;;;;;4971212;28;20465;-49
2022/03/22 07:27:05;;;;;;;24.43;17.73;;;7.30;99.90;;;;;;4971032;28;20540;-48
2022/03/22 07:29:33;;;;;;;21.70;16.90;;;7.70;99.90;;;;;;4966309;28;20488;-49
2022/03/22 07:31:59;;;;;;;25.40;16.10;;;7.80;99.90;;;;;;4969365;28;20976;-49
2022/03/22 07:34:27;;;;;;;23.73;17.00;;;8.00;99.90;;;;;;4967280;28;20473;-48
2022/03/22 07:36:54;;;;;;;33.40;17.10;;;8.30;99.90;;;;;;4969376;28;20533;-48
2022/03/22 07:39:23;;;;;;;27.83;17.23;;;8.40;99.90;;;;;;4972541;28;20468;-48
2022/03/22 07:41:50;;;;;;;35.07;16.37;;;8.80;99.90;;;;;;4974827;28;20580;-48
2022/03/22 07:44:17;;;;;;;22.47;17.00;;;8.80;99.90;;;;;;4975374;28;20994;-48
2022/03/22 07:46:45;;;;;;;34.43;16.53;;;9.40;99.90;;;;;;4974525;28;21220;-49
2022/03/22 07:54:42;;;;;;;23.53;17.20;;;9.50;99.90;;;;;;4974408;28;20527;-50
2022/03/22 07:57:09;;;;;;;25.50;17.13;;;9.40;99.90;;;;;;4973600;28;20560;-49
2022/03/22 07:59:36;;;;;;;38.83;16.77;;;9.30;99.90;;;;;;4970351;28;21021;-50
2022/03/22 08:02:05;;;;;;;25.90;16.87;;;9.50;99.90;;;;;;4972149;28;20483;-51
2022/03/22 08:04:31;;;;;;;28.20;15.73;;;9.60;99.90;;;;;;4974001;28;20900;-50
2022/03/22 08:06:58;;;;;;;26.13;16.77;;;9.90;99.90;;;;;;4971422;28;20516;-51
2022/03/22 08:09:24;;;;;;;23.03;16.40;;;10.10;99.90;;;;;;4967850;28;20527;-50
2022/03/22 08:11:51;;;;;;;24.50;16.27;;;10.30;99.90;;;;;;4975803;28;20513;-49
2022/03/22 08:14:19;;;;;;;21.00;15.40;;;10.30;99.90;;;;;;4974163;28;20504;-50
2022/03/22 08:16:46;;;;;;;18.83;15.60;;;10.20;99.90;;;;;;4975396;28;20514;-49
2022/03/22 08:19:18;;;;;;;23.87;15.40;;;10.50;99.90;;;;;;4974894;28;20489;-51
2022/03/22 08:21:45;;;;;;;22.80;14.97;;;10.60;99.90;;;;;;4974821;28;20543;-50
2022/03/22 08:24:12;;;;;;;18.63;14.73;;;11.00;99.90;;;;;;4974129;28;20493;-50
2022/03/22 08:26:39;;;;;;;25.87;15.57;;;11.60;99.90;;;;;;4974823;28;20505;-49
2022/03/22 08:29:07;;;;;;;20.10;14.80;;;12.00;99.90;;;;;;4969520;28;20484;-49
2022/03/22 08:31:35;;;;;;;16.93;13.80;;;12.10;99.90;;;;;;4967600;28;20474;-49
2022/03/22 08:34:02;;;;;;;21.03;13.70;;;12.00;99.90;;;;;;4971752;28;20907;-50
2022/03/22 08:36:29;;;;;;;21.63;14.40;;;11.80;99.90;;;;;;4968644;28;20477;-49
2022/03/22 08:38:58;;;;;;;19.90;15.70;;;11.90;99.90;;;;;;4971184;28;20903;-49
2022/03/22 08:41:24;;;;;;;21.83;14.30;;;12.00;99.90;;;;;;4966906;28;20489;-49
2022/03/22 08:43:52;;;;;;;25.33;15.53;;;12.60;99.90;;;;;;4980813;28;20477;-49
2022/03/22 08:46:20;;;;;;;23.70;14.30;;;12.40;99.90;;;;;;4971683;28;20484;-49
2022/03/22 08:48:47;;;;;;;18.20;13.27;;;12.80;99.90;;;;;;4973041;28;20489;-49
2022/03/22 08:51:15;;;;;;;19.43;14.40;;;13.80;99.90;;;;;;4972785;28;20517;-49
2022/03/22 08:53:43;;;;;;;19.20;13.73;;;14.00;99.90;;;;;;4971815;28;20496;-49
2022/03/22 08:56:11;;;;;;;27.10;13.93;;;14.90;99.90;;;;;;4971970;28;20886;-49
2022/03/22 08:58:38;;;;;;;19.77;14.10;;;15.00;99.90;;;;;;4975663;28;20457;-49
2022/03/22 09:01:05;;;;;;;33.27;15.30;;;15.40;99.90;;;;;;4974072;28;22247;-49
2022/03/22 09:03:32;;;;;;;25.77;14.60;;;15.10;99.90;;;;;;4975449;28;20464;-49
2022/03/22 09:06:12;;;;;;;19.50;13.70;;;15.90;99.90;;;;;;4974781;28;20461;-50
2022/03/22 09:08:39;;;;;;;22.23;14.00;;;15.90;99.90;;;;;;4972995;28;20460;-49
2022/03/22 09:11:08;;;;;;;23.33;15.07;;;16.00;99.90;;;;;;4971443;28;20520;-50
2022/03/22 09:13:35;;;;;;;27.23;14.50;;;16.70;99.90;;;;;;4971453;28;20470;-49
2022/03/22 09:16:02;;;;;;;20.50;16.10;;;15.20;99.90;;;;;;4973857;28;20537;-49
2022/03/22 09:18:29;;;;;;;19.97;14.40;;;16.90;99.90;;;;;;4969850;28;20432;-49
2022/03/22 09:20:56;;;;;;;18.73;15.00;;;17.70;99.90;;;;;;4973718;28;20462;-49
2022/03/22 09:23:23;;;;;;;21.00;14.53;;;17.60;99.90;;;;;;4971263;28;20490;-48
2022/03/22 09:25:50;;;;;;;19.37;13.93;;;18.00;99.90;;;;;;4982126;28;21815;-49
2022/03/22 09:28:18;;;;;;;17.43;13.50;;;15.80;99.90;;;;;;4956616;28;20484;-49
2022/03/22 09:30:48;;;;;;;19.30;13.93;;;17.10;99.90;;;;;;4956994;28;20544;-49
2022/03/22 09:33:14;;;;;;;21.20;13.43;;;18.20;99.90;;;;;;4962641;28;20542;-49
2022/03/22 09:35:41;;;;;;;23.23;14.30;;;18.00;99.90;;;;;;4961062;28;20520;-49
2022/03/22 09:38:07;;;;;;;18.60;14.37;;;18.40;99.90;;;;;;4957739;28;20458;-49
2022/03/22 09:40:34;;;;;;;23.60;13.70;;;18.60;99.90;;;;;;4968340;28;20469;-50
2022/03/22 09:43:00;;;;;;;20.60;13.57;;;17.40;99.90;;;;;;4972951;28;20508;-50
2022/03/22 09:45:31;;;;;;;20.57;13.90;;;17.30;99.90;;;;;;4968434;28;20474;-49
2022/03/22 09:47:59;;;;;;;22.60;14.10;;;17.70;99.90;;;;;;4964100;28;20488;-49
2022/03/22 09:51:44;;;;;;;20.63;14.57;;;17.30;99.90;;;;;;4973498;28;20840;-49
2022/03/22 09:53:15;;;;;;;21.80;12.87;;;16.40;99.90;;;;;;4969823;28;20971;-49
2022/03/22 09:55:41;;;;;;;18.43;13.30;;;16.90;99.90;;;;;;4971662;28;20552;-49
2022/03/22 09:58:08;;;;;;;18.73;14.00;;;17.30;99.90;;;;;;4973310;28;20449;-49
2022/03/22 10:00:36;;;;;;;15.20;12.63;;;16.90;99.90;;;;;;4974317;28;20449;-49
2022/03/22 10:03:03;;;;;;;24.47;13.90;;;17.80;99.90;;;;;;4973760;28;20492;-49
2022/03/22 10:05:30;;;;;;;23.93;12.27;;;18.00;99.90;;;;;;4973442;28;20508;-49
2022/03/22 10:07:59;;;;;;;13.23;11.83;;;17.70;99.90;;;;;;4973387;28;21033;-49
2022/03/22 10:10:26;;;;;;;15.87;12.03;;;18.10;99.90;;;;;;4973900;28;20827;-49
2022/03/22 10:12:58;;;;;;;18.53;10.83;;;18.40;99.90;;;;;;4973826;28;20500;-50
2022/03/22 10:15:30;;;;;;;19.13;11.30;;;17.70;99.90;;;;;;4973941;28;20461;-49
2022/03/22 10:18:05;;;;;;;17.90;11.67;;;17.60;99.90;;;;;;4973018;28;20478;-49
2022/03/22 10:20:33;;;;;;;14.60;10.70;;;17.40;99.90;;;;;;4973040;28;20812;-49
2022/03/22 10:23:01;;;;;;;12.67;11.20;;;17.50;99.90;;;;;;4973301;28;21001;-49
2022/03/22 10:25:29;;;;;;;18.07;11.07;;;17.70;99.90;;;;;;4973658;28;20458;-49
2022/03/22 10:27:57;;;;;;;16.50;12.17;;;18.70;99.90;;;;;;4973065;28;20454;-49
2022/03/22 10:30:23;;;;;;;12.30;10.50;;;18.90;99.90;;;;;;4973580;28;20450;-49
2022/03/22 10:32:51;;;;;;;21.07;10.50;;;18.60;99.90;;;;;;4973073;28;20497;-50
2022/03/22 10:35:22;;;;;;;15.23;9.93;;;18.30;99.90;;;;;;4966141;28;20445;-49
2022/03/22 10:37:50;;;;;;;17.93;12.63;;;18.40;99.90;;;;;;4972657;28;20441;-49
2022/03/22 10:40:22;;;;;;;16.43;11.67;;;18.10;99.90;;;;;;4973256;28;20453;-49
2022/03/22 10:42:49;;;;;;;17.00;11.63;;;17.60;99.90;;;;;;4973285;28;20843;-49
2022/03/22 10:45:16;;;;;;;18.73;12.30;;;18.80;99.90;;;;;;4973299;28;20484;-50
2022/03/22 10:47:43;;;;;;;19.13;11.20;;;20.30;99.90;;;;;;4972833;28;20481;-49
2022/03/22 10:50:10;;;;;;;22.27;11.40;;;19.20;99.90;;;;;;4972899;28;20487;-49
2022/03/22 10:52:52;;;;;;;15.13;11.53;;;18.50;99.90;;;;;;4965092;28;21006;-49
2022/03/22 10:55:23;;;;;;;12.53;10.40;;;17.70;99.90;;;;;;4969315;28;20461;-49
2022/03/22 10:57:50;;;;;;;20.33;11.97;;;18.40;99.90;;;;;;4965824;28;20493;-49
2022/03/22 11:00:18;;;;;;;16.43;11.17;;;18.90;99.90;;;;;;4970962;28;20518;-49
2022/03/22 11:05:15;;;;;;;14.37;10.60;;;19.30;99.90;;;;;;4967658;28;20469;-51
2022/03/22 11:07:43;;;;;;;14.30;10.47;;;18.40;99.90;;;;;;4972612;28;20524;-50
2022/03/22 11:10:11;;;;;;;15.23;10.17;;;17.90;99.90;;;;;;4970288;28;21580;-50
2022/03/22 11:12:39;;;;;;;12.27;10.47;;;17.20;99.90;;;;;;4973952;28;20477;-52
2022/03/22 11:15:07;;;;;;;10.83;9.00;;;16.70;99.90;;;;;;4962698;28;20575;-50
2022/03/22 11:17:35;;;;;;;12.57;10.73;;;16.60;99.90;;;;;;4969162;28;20465;-51
2022/03/22 11:20:04;;;;;;;13.13;10.50;;;16.50;99.90;;;;;;4972994;28;20453;-52
2022/03/22 11:22:31;;;;;;;17.40;10.70;;;16.40;99.90;;;;;;4970580;28;20469;-51
2022/03/22 11:25:07;;;;;;;12.17;10.83;;;16.10;99.90;;;;;;4970471;28;21021;-52
2022/03/22 11:27:37;;;;;;;15.27;10.80;;;16.20;99.90;;;;;;4973930;28;20491;-51
2022/03/22 11:30:05;;;;;;;12.60;10.37;;;16.20;99.90;;;;;;4976328;28;20484;-51
2022/03/22 11:35:17;;;;;;;16.70;11.40;;;17.10;99.90;;;;;;4971268;28;20461;-51
2022/03/22 11:37:55;;;;;;;12.33;10.50;;;16.60;99.90;;;;;;4975817;28;20856;-50
2022/03/22 11:43:11;;;;;;;14.57;10.50;;;17.20;99.90;;;;;;4968814;28;20476;-51
2022/03/22 11:45:47;;;;;;;10.27;8.40;;;16.80;99.90;;;;;;4974863;28;20489;-50
2022/03/22 11:48:16;;;;;;;13.30;9.77;;;16.50;99.90;;;;;;4971411;28;20461;-50
2022/03/22 11:50:44;;;;;;;14.10;10.20;;;16.10;99.90;;;;;;4973656;28;20488;-50
2022/03/22 11:53:18;;;;;;;9.80;8.80;;;16.50;99.90;;;;;;4965905;28;20485;-50
2022/03/22 11:55:50;;;;;;;14.13;9.03;;;16.70;99.90;;;;;;4974243;28;20548;-51
2022/03/22 11:58:20;;;;;;;13.37;8.83;;;16.50;99.90;;;;;;4975406;28;20454;-51
2022/03/22 12:00:51;;;;;;;9.00;8.10;;;16.60;99.90;;;;;;4975140;28;20488;-51
2022/03/22 12:03:23;;;;;;;12.70;7.80;;;16.70;99.90;;;;;;4972565;28;20542;-51
2022/03/22 12:05:52;;;;;;;8.63;7.83;;;16.60;99.90;;;;;;4975582;28;20445;-51
2022/03/22 12:08:19;;;;;;;9.17;7.60;;;16.30;99.90;;;;;;4975535;28;20529;-51
2022/03/22 12:10:47;;;;;;;9.67;8.57;;;16.40;99.90;;;;;;4968243;28;20493;-51
2022/03/22 12:13:14;;;;;;;10.73;9.63;;;16.40;99.90;;;;;;4972157;28;20489;-51
2022/03/22 12:15:43;;;;;;;16.83;9.57;;;16.40;99.90;;;;;;4974827;28;20476;-51
2022/03/22 12:18:10;;;;;;;14.23;8.50;;;16.50;99.90;;;;;;4974605;28;20465;-53
2022/03/22 12:20:37;;;;;;;11.57;10.37;;;16.50;99.90;;;;;;4975088;28;20460;-52
2022/03/22 12:23:06;;;;;;;8.93;7.97;;;16.50;99.90;;;;;;4970610;28;20532;-52
2022/03/22 12:25:34;;;;;;;12.13;8.83;;;16.00;99.90;;;;;;4965099;28;20467;-52
2022/03/22 12:28:03;;;;;;;13.17;9.20;;;16.30;99.90;;;;;;4963596;28;20490;-52
2022/03/22 12:30:32;;;;;;;12.03;8.57;;;16.50;99.90;;;;;;4965585;28;20517;-52
2022/03/22 12:33:02;;;;;;;11.37;9.17;;;17.10;99.90;;;;;;4973229;28;20539;-52
2022/03/22 12:35:29;;;;;;;15.37;8.43;;;17.10;99.90;;;;;;4966785;28;20462;-51
2022/03/22 12:37:57;;;;;;;11.90;9.30;;;17.50;99.90;;;;;;4967567;28;21410;-51
2022/03/22 12:40:24;;;;;;;15.03;8.93;;;17.50;99.90;;;;;;4972356;28;20468;-54
2022/03/22 12:42:52;;;;;;;8.60;7.80;;;18.70;99.90;;;;;;4972858;28;21199;-52
2022/03/22 12:45:20;;;;;;;10.37;9.37;;;18.40;99.90;;;;;;4967390;28;20477;-53
2022/03/22 12:47:48;;;;;;;11.47;9.13;;;19.70;99.90;;;;;;4974324;28;20468;-52
2022/03/22 12:50:18;;;;;;;12.13;8.60;;;18.90;99.90;;;;;;4973097;28;21018;-53
2022/03/22 12:52:45;;;;;;;8.30;7.40;;;18.90;99.90;;;;;;4973051;28;20550;-53
2022/03/22 12:55:13;;;;;;;19.13;8.80;;;19.00;99.90;;;;;;4961407;28;20969;-54
2022/03/22 12:57:44;;;;;;;11.80;7.60;;;18.30;99.90;;;;;;4970927;28;20451;-54
2022/03/22 13:00:12;;;;;;;8.83;7.77;;;18.20;99.90;;;;;;4967708;28;20469;-54
2022/03/22 13:02:39;;;;;;;18.13;8.73;;;18.10;99.90;;;;;;4973303;28;20454;-52
2022/03/22 13:05:07;;;;;;;7.00;6.40;;;18.30;99.90;;;;;;4974049;28;20474;-54
2022/03/22 13:07:35;;;;;;;7.67;6.97;;;18.80;99.90;;;;;;4968082;28;20493;-54
2022/03/22 13:12:47;;;;;;;10.63;8.33;;;19.70;99.90;;;;;;4973877;28;20449;-53
2022/03/22 13:15:15;;;;;;;9.50;7.80;;;20.00;99.90;;;;;;4972425;28;20489;-54